createdAt,value
2017-11-22T00:00:59.276Z,4.00
2017-11-22T00:06:19.556Z,4.00
2017-11-22T00:08:55.498Z,4.00
2017-11-22T00:11:23.769Z,4.00
2017-11-22T00:13:52.021Z,4.00
2017-11-22T00:16:19.503Z,4.00
2017-11-22T00:18:48.677Z,4.00
2017-11-22T00:21:17.732Z,3.90
2017-11-22T00:23:45.201Z,3.90
2017-11-22T00:26:12.670Z,3.90
2017-11-22T00:28:40.158Z,3.90
2017-11-22T00:31:09.336Z,3.90
2017-11-22T00:33:36.836Z,3.90
2017-11-22T00:36:04.310Z,3.90
2017-11-22T00:38:32.238Z,3.90
2017-11-22T00:41:00.478Z,3.90
2017-11-22T00:43:27.961Z,3.90
2017-11-22T00:45:55.444Z,3.90
2017-11-22T00:48:23.694Z,3.90
2017-11-22T00:50:53.385Z,3.90
2017-11-22T00:53:20.874Z,3.90
2017-11-22T00:55:48.354Z,3.90
2017-11-22T00:58:15.872Z,3.90
2017-11-22T01:00:43.314Z,3.90
2017-11-22T01:03:10.838Z,3.90
2017-11-22T01:05:38.314Z,3.80
2017-11-22T01:08:05.806Z,3.80
2017-11-22T01:10:33.289Z,3.90
2017-11-22T01:13:01.764Z,3.90
2017-11-22T01:15:30.005Z,3.90
2017-11-22T01:17:57.512Z,3.90
2017-11-22T01:20:25.750Z,3.80
2017-11-22T01:26:00.677Z,3.80
2017-11-22T01:28:28.164Z,3.80
2017-11-22T01:36:41.692Z,3.70
2017-11-22T01:39:09.174Z,3.80
2017-11-22T01:41:36.665Z,3.80
2017-11-22T01:44:04.910Z,3.80
2017-11-22T01:46:33.080Z,3.70
2017-11-22T01:49:00.584Z,3.80
2017-11-22T01:51:28.817Z,3.70
2017-11-22T01:53:56.309Z,3.70
2017-11-22T01:56:24.556Z,3.70
2017-11-22T01:58:52.065Z,3.70
2017-11-22T02:01:19.547Z,3.70
2017-11-22T02:03:47.055Z,3.70
2017-11-22T02:06:15.311Z,3.60
2017-11-22T02:08:42.810Z,3.60
2017-11-22T02:11:10.290Z,3.70
2017-11-22T02:13:37.783Z,3.70
2017-11-22T02:16:05.943Z,3.60
2017-11-22T02:18:33.432Z,3.60
2017-11-22T02:21:00.893Z,3.70
2017-11-22T02:23:29.164Z,3.70
2017-11-22T02:25:56.638Z,3.70
2017-11-22T02:28:24.861Z,3.70
2017-11-22T02:30:52.358Z,3.70
2017-11-22T02:33:20.611Z,3.70
2017-11-22T02:35:48.092Z,3.70
2017-11-22T02:38:16.314Z,3.70
2017-11-22T02:40:43.792Z,3.70
2017-11-22T02:43:11.287Z,3.60
2017-11-22T02:45:39.536Z,3.60
2017-11-22T02:48:07.027Z,3.60
2017-11-22T02:50:35.268Z,3.70
2017-11-22T02:53:03.549Z,3.70
2017-11-22T02:55:32.035Z,3.70
2017-11-22T02:57:59.517Z,3.60
2017-11-22T03:00:28.163Z,3.60
2017-11-22T03:02:55.639Z,3.60
2017-11-22T03:05:23.119Z,3.60
2017-11-22T03:07:50.613Z,3.60
2017-11-22T03:10:18.095Z,3.60
2017-11-22T03:12:45.567Z,3.60
2017-11-22T03:15:13.049Z,3.60
2017-11-22T03:17:41.829Z,3.60
2017-11-22T03:20:09.319Z,3.60
2017-11-22T03:22:37.834Z,3.60
2017-11-22T03:25:05.312Z,3.60
2017-11-22T03:27:33.743Z,3.60
2017-11-22T03:30:01.230Z,3.60
2017-11-22T03:32:28.713Z,3.50
2017-11-22T03:34:57.168Z,3.50
2017-11-22T03:37:24.650Z,3.50
2017-11-22T03:39:52.123Z,3.40
2017-11-22T03:42:20.378Z,3.40
2017-11-22T03:44:48.285Z,3.30
2017-11-22T03:47:15.777Z,3.30
2017-11-22T03:49:48.922Z,3.30
2017-11-22T03:52:23.022Z,3.40
2017-11-22T03:54:51.266Z,3.30
2017-11-22T03:57:19.703Z,3.30
2017-11-22T03:59:48.152Z,3.30
2017-11-22T04:02:16.365Z,3.30
2017-11-22T04:04:43.850Z,3.30
2017-11-22T04:07:11.354Z,3.30
2017-11-22T04:09:39.581Z,3.20
2017-11-22T04:12:08.644Z,3.20
2017-11-22T04:14:36.118Z,3.30
2017-11-22T04:17:03.613Z,3.20
2017-11-22T04:19:39.982Z,3.30
2017-11-22T04:22:08.115Z,3.20
2017-11-22T04:24:35.592Z,3.20
2017-11-22T04:27:03.848Z,3.20
2017-11-22T04:29:31.325Z,3.20
2017-11-22T04:31:58.818Z,3.20
2017-11-22T04:34:26.307Z,3.20
2017-11-22T04:36:53.809Z,3.20
2017-11-22T04:39:21.293Z,3.10
2017-11-22T04:41:49.451Z,3.00
2017-11-22T04:44:16.945Z,3.00
2017-11-22T04:46:44.487Z,3.10
2017-11-22T04:49:12.748Z,3.10
2017-11-22T04:51:40.227Z,3.00
2017-11-22T04:54:08.470Z,3.00
2017-11-22T04:56:35.960Z,3.00
2017-11-22T04:59:04.199Z,3.10
2017-11-22T05:01:31.688Z,3.00
2017-11-22T05:03:59.163Z,3.10
2017-11-22T05:06:26.660Z,3.10
2017-11-22T05:08:54.148Z,3.10
2017-11-22T05:11:21.748Z,3.20
2017-11-22T05:13:49.233Z,3.10
2017-11-22T05:16:16.721Z,3.10
2017-11-22T05:18:44.240Z,3.00
2017-11-22T05:21:11.765Z,3.00
2017-11-22T05:23:40.014Z,2.90
2017-11-22T05:26:08.012Z,2.90
2017-11-22T05:28:36.268Z,3.00
2017-11-22T05:31:03.750Z,3.00
2017-11-22T05:33:32.033Z,3.00
2017-11-22T05:35:59.505Z,3.00
2017-11-22T05:38:26.991Z,3.00
2017-11-22T05:40:54.472Z,2.90
2017-11-22T05:43:21.957Z,2.90
2017-11-22T05:45:50.370Z,2.90
2017-11-22T05:51:11.329Z,3.00
2017-11-22T05:53:38.826Z,2.90
2017-11-22T05:56:06.306Z,2.90
2017-11-22T05:58:33.821Z,2.90
2017-11-22T06:01:07.835Z,2.80
2017-11-22T06:03:36.083Z,2.90
2017-11-22T06:06:04.319Z,2.80
2017-11-22T06:08:31.997Z,2.80
2017-11-22T06:10:59.474Z,2.90
2017-11-22T06:13:26.958Z,2.90
2017-11-22T06:15:55.217Z,2.80
2017-11-22T06:18:22.713Z,2.80
2017-11-22T06:20:50.970Z,2.80
2017-11-22T06:23:19.255Z,2.80
2017-11-22T06:25:47.499Z,2.80
2017-11-22T06:28:14.973Z,2.80
2017-11-22T06:33:35.790Z,2.90
2017-11-22T06:36:03.305Z,2.90
2017-11-22T06:38:30.805Z,2.90
2017-11-22T06:40:58.296Z,2.90
2017-11-22T06:43:25.795Z,2.80
2017-11-22T06:45:53.961Z,2.80
2017-11-22T06:48:21.445Z,2.90
2017-11-22T06:50:48.929Z,2.90
2017-11-22T06:53:17.206Z,2.90
2017-11-22T06:55:45.442Z,2.90
2017-11-22T06:58:12.954Z,2.90
2017-11-22T07:00:40.500Z,3.00
2017-11-22T07:03:09.579Z,2.90
2017-11-22T07:05:37.417Z,2.90
2017-11-22T07:08:04.889Z,2.90
2017-11-22T07:10:32.423Z,2.90
2017-11-22T07:13:00.828Z,3.00
2017-11-22T07:15:28.316Z,3.00
2017-11-22T07:17:56.546Z,2.90
2017-11-22T07:20:37.583Z,2.90
2017-11-22T07:23:05.055Z,3.00
2017-11-22T07:25:32.672Z,3.00
2017-11-22T07:28:00.949Z,3.10
2017-11-22T07:30:28.452Z,3.30
2017-11-22T07:35:55.953Z,4.00
2017-11-22T07:38:23.437Z,4.00
2017-11-22T07:40:50.935Z,4.30
2017-11-22T07:43:18.406Z,4.60
2017-11-22T07:45:45.902Z,4.60
2017-11-22T07:48:15.211Z,4.60
2017-11-22T07:50:45.565Z,4.70
2017-11-22T07:53:13.883Z,4.70
2017-11-22T07:55:41.391Z,4.70
2017-11-22T07:58:23.963Z,4.80
2017-11-22T08:00:53.666Z,4.80
2017-11-22T08:03:21.962Z,4.80
2017-11-22T08:05:49.457Z,4.90
2017-11-22T08:08:17.713Z,4.90
2017-11-22T08:10:45.193Z,4.90
2017-11-22T08:13:13.417Z,4.90
2017-11-22T08:15:42.033Z,4.90
2017-11-22T08:18:09.521Z,4.90
2017-11-22T08:20:37.409Z,5.00
2017-11-22T08:23:04.883Z,5.00
2017-11-22T08:25:32.377Z,5.20
2017-11-22T08:28:06.304Z,5.40
2017-11-22T08:30:37.572Z,5.60
2017-11-22T08:33:05.041Z,5.60
2017-11-22T08:38:25.221Z,5.90
2017-11-22T08:40:52.720Z,6.00
2017-11-22T08:43:26.029Z,6.10
2017-11-22T08:45:53.494Z,6.30
2017-11-22T08:48:21.742Z,6.50
2017-11-22T08:50:49.270Z,6.50
2017-11-22T08:53:16.733Z,6.60
2017-11-22T08:55:49.969Z,6.70
2017-11-22T08:58:17.446Z,6.70
2017-11-22T09:00:44.947Z,6.80
2017-11-22T09:03:15.201Z,7.00
2017-11-22T09:08:21.507Z,7.10
2017-11-22T09:10:48.994Z,7.10
2017-11-22T09:13:20.813Z,7.20
2017-11-22T09:15:49.076Z,7.40
2017-11-22T09:18:22.365Z,7.30
2017-11-22T09:20:49.879Z,7.40
2017-11-22T09:23:17.363Z,7.40
2017-11-22T09:25:44.851Z,7.50
2017-11-22T09:28:12.339Z,7.60
2017-11-22T09:30:46.326Z,7.80
2017-11-22T09:33:13.839Z,7.80
2017-11-22T09:35:41.310Z,7.80
2017-11-22T09:38:08.792Z,7.80
2017-11-22T09:40:36.283Z,7.90
2017-11-22T09:43:04.588Z,8.00
2017-11-22T09:45:32.070Z,8.00
2017-11-22T09:47:59.568Z,8.10
2017-11-22T09:50:27.827Z,8.20
2017-11-22T09:52:55.326Z,8.10
2017-11-22T09:55:22.801Z,8.20
2017-11-22T09:57:50.281Z,8.20
2017-11-22T10:00:17.761Z,8.30
2017-11-22T10:02:45.243Z,8.40
2017-11-22T10:05:13.484Z,8.60
2017-11-22T10:07:40.994Z,8.60
2017-11-22T10:10:08.495Z,8.70
2017-11-22T10:12:36.002Z,8.70
2017-11-22T10:15:03.495Z,8.80
2017-11-22T10:17:31.926Z,8.90
2017-11-22T10:20:04.154Z,9.10
2017-11-22T10:22:37.399Z,9.10
2017-11-22T10:25:09.689Z,9.20
2017-11-22T10:27:37.174Z,9.30
2017-11-22T10:30:10.400Z,9.30
2017-11-22T10:32:38.648Z,9.40
2017-11-22T10:35:06.273Z,9.40
2017-11-22T10:37:34.583Z,9.50
2017-11-22T10:40:02.073Z,9.50
2017-11-22T10:42:30.330Z,9.50
2017-11-22T10:44:58.961Z,9.50
2017-11-22T10:47:26.432Z,9.50
2017-11-22T10:49:53.933Z,9.40
2017-11-22T10:52:21.406Z,9.50
2017-11-22T10:54:48.913Z,9.50
2017-11-22T10:57:16.399Z,9.60
2017-11-22T10:59:57.133Z,9.70
2017-11-22T11:02:24.598Z,9.80
2017-11-22T11:04:52.081Z,9.90
2017-11-22T11:07:21.082Z,10.00
2017-11-22T11:09:48.571Z,9.90
2017-11-22T11:12:16.816Z,10.10
2017-11-22T11:14:44.299Z,10.10
2017-11-22T11:17:12.546Z,10.10
2017-11-22T11:19:40.053Z,10.10
2017-11-22T11:22:07.522Z,10.10
2017-11-22T11:24:35.009Z,10.20
2017-11-22T11:27:02.481Z,10.30
2017-11-22T11:29:29.995Z,10.40
2017-11-22T11:31:57.477Z,10.30
2017-11-22T11:34:24.965Z,10.50
2017-11-22T11:36:52.467Z,10.50
2017-11-22T11:39:19.957Z,10.50
2017-11-22T11:41:47.424Z,10.60
2017-11-22T11:44:14.914Z,10.50
2017-11-22T11:46:43.166Z,10.70
2017-11-22T11:49:10.673Z,10.70
2017-11-22T11:51:38.170Z,10.60
2017-11-22T11:54:06.822Z,10.70
2017-11-22T11:56:35.171Z,10.70
2017-11-22T11:59:03.429Z,10.80
2017-11-22T12:01:31.710Z,10.90
2017-11-22T12:03:59.958Z,10.90
2017-11-22T12:06:27.442Z,10.90
2017-11-22T12:08:55.678Z,11.00
2017-11-22T12:11:23.165Z,10.90
2017-11-22T12:13:50.641Z,10.90
2017-11-22T12:27:53.939Z,10.90
2017-11-22T12:30:21.416Z,10.90
2017-11-22T12:32:48.901Z,10.90
2017-11-22T12:35:16.370Z,10.90
2017-11-22T12:43:31.472Z,10.80
2017-11-22T12:46:00.764Z,10.80
2017-11-22T12:48:29.375Z,10.80
2017-11-22T12:50:56.843Z,10.80
2017-11-22T12:53:26.056Z,10.80
2017-11-22T12:55:53.548Z,10.80
2017-11-22T12:58:21.030Z,10.80
2017-11-22T13:00:48.517Z,10.80
2017-11-22T13:03:16.756Z,10.80
2017-11-22T13:05:44.236Z,10.80
2017-11-22T13:08:12.507Z,10.90
2017-11-22T13:10:45.675Z,10.90
2017-11-22T13:13:13.180Z,10.90
2017-11-22T13:15:40.643Z,10.90
2017-11-22T13:18:08.124Z,10.80
2017-11-22T13:20:36.184Z,10.80
2017-11-22T13:23:03.700Z,10.70
2017-11-22T13:25:31.957Z,10.70
2017-11-22T13:27:59.452Z,10.70
2017-11-22T13:30:27.751Z,10.60
2017-11-22T13:32:55.217Z,10.60
2017-11-22T13:35:22.689Z,10.50
2017-11-22T13:37:50.191Z,10.50
2017-11-22T13:40:18.453Z,10.40
2017-11-22T13:42:46.866Z,10.40
2017-11-22T13:45:14.373Z,10.30
2017-11-22T13:47:41.865Z,10.30
2017-11-22T13:50:09.338Z,10.30
2017-11-22T13:52:36.830Z,10.20
2017-11-22T13:55:04.314Z,10.20
2017-11-22T13:57:31.790Z,10.20
2017-11-22T14:00:00.054Z,10.00
2017-11-22T14:02:27.546Z,10.00
2017-11-22T14:04:55.049Z,10.00
2017-11-22T14:07:22.520Z,10.00
2017-11-22T14:09:50.004Z,9.90
2017-11-22T14:12:18.235Z,9.80
2017-11-22T14:14:45.724Z,9.80
2017-11-22T14:20:06.571Z,9.80
2017-11-22T14:22:35.195Z,9.70
2017-11-22T14:25:02.679Z,9.70
2017-11-22T14:27:30.919Z,9.60
2017-11-22T14:29:58.393Z,9.60
2017-11-22T14:32:25.883Z,9.50
2017-11-22T14:34:53.373Z,9.50
2017-11-22T14:37:20.854Z,9.40
2017-11-22T14:39:48.343Z,9.40
2017-11-22T14:42:16.589Z,9.10
2017-11-22T14:44:44.086Z,9.10
2017-11-22T14:47:11.553Z,9.00
2017-11-22T14:49:39.815Z,8.80
2017-11-22T14:52:07.278Z,8.80
2017-11-22T14:54:34.788Z,8.70
2017-11-22T14:57:02.265Z,8.60
2017-11-22T14:59:29.729Z,8.50
2017-11-22T15:01:57.217Z,8.40
2017-11-22T15:04:25.458Z,8.30
2017-11-22T15:06:52.937Z,8.30
2017-11-22T15:09:21.930Z,8.20
2017-11-22T15:11:49.410Z,8.20
2017-11-22T15:14:17.649Z,8.10
2017-11-22T15:16:45.132Z,8.10
2017-11-22T15:19:13.397Z,8.00
2017-11-22T15:21:41.695Z,7.90
2017-11-22T15:24:09.931Z,7.90
2017-11-22T15:26:37.659Z,7.90
2017-11-22T15:29:05.328Z,7.80
2017-11-22T15:31:32.826Z,7.80
2017-11-22T15:34:00.318Z,7.70
2017-11-22T15:36:28.587Z,7.60
2017-11-22T15:38:56.826Z,7.60
2017-11-22T15:41:24.315Z,7.60
2017-11-22T15:43:52.568Z,7.50
2017-11-22T15:46:20.058Z,7.50
2017-11-22T15:48:48.314Z,7.40
2017-11-22T15:51:28.538Z,7.40
2017-11-22T15:53:56.028Z,7.30
2017-11-22T15:56:23.567Z,7.30
2017-11-22T15:58:51.037Z,7.20
2017-11-22T16:01:18.533Z,7.20
2017-11-22T16:03:46.770Z,7.10
2017-11-22T16:06:14.305Z,7.10
2017-11-22T16:08:41.806Z,7.00
2017-11-22T16:11:10.078Z,6.90
2017-11-22T16:13:39.302Z,6.90
2017-11-22T16:16:07.584Z,6.90
2017-11-22T16:18:35.095Z,6.90
2017-11-22T16:21:02.576Z,6.90
2017-11-22T16:23:30.825Z,6.80
2017-11-22T16:25:58.317Z,6.80
2017-11-22T16:28:26.576Z,6.70
2017-11-22T16:30:54.111Z,6.70
2017-11-22T16:33:21.622Z,6.60
2017-11-22T16:35:49.145Z,6.60
2017-11-22T16:38:17.606Z,6.60
2017-11-22T16:40:45.085Z,6.50
2017-11-22T16:43:12.616Z,6.50
2017-11-22T16:45:40.131Z,6.40
2017-11-22T16:48:08.396Z,6.40
2017-11-22T16:50:36.641Z,6.30
2017-11-22T16:53:04.131Z,6.30
2017-11-22T16:55:32.422Z,6.30
2017-11-22T16:57:59.956Z,6.20
2017-11-22T17:00:28.232Z,6.20
2017-11-22T17:02:55.748Z,6.20
2017-11-22T17:05:23.213Z,6.10
2017-11-22T17:07:50.736Z,6.00
2017-11-22T17:10:18.255Z,6.00
2017-11-22T17:12:45.740Z,6.00
2017-11-22T17:15:17.702Z,5.90
2017-11-22T17:17:45.177Z,5.90
2017-11-22T17:20:12.700Z,5.90
2017-11-22T17:22:40.250Z,5.90
2017-11-22T17:25:07.728Z,5.80
2017-11-22T17:27:36.007Z,5.80
2017-11-22T17:30:04.259Z,5.70
2017-11-22T17:32:31.864Z,5.70
2017-11-22T17:34:59.375Z,5.70
2017-11-22T17:37:26.894Z,5.80
2017-11-22T17:39:54.356Z,5.90
2017-11-22T17:42:21.826Z,5.90
2017-11-22T17:44:49.361Z,5.80
2017-11-22T17:47:16.836Z,5.80
2017-11-22T17:49:44.326Z,5.80
2017-11-22T17:52:11.884Z,5.70
2017-11-22T17:54:39.432Z,5.70
2017-11-22T17:57:06.952Z,5.60
2017-11-22T17:59:34.492Z,5.60
2017-11-22T18:02:02.795Z,5.50
2017-11-22T18:04:30.340Z,5.50
2017-11-22T18:06:57.823Z,5.50
2017-11-22T18:09:26.090Z,5.40
2017-11-22T18:11:53.583Z,5.40
2017-11-22T18:14:22.332Z,5.40
2017-11-22T18:16:49.813Z,5.40
2017-11-22T18:19:17.311Z,5.30
2017-11-22T18:21:45.588Z,5.30
2017-11-22T18:24:13.109Z,5.30
2017-11-22T18:26:40.645Z,5.30
2017-11-22T18:29:08.157Z,5.20
2017-11-22T18:31:35.690Z,5.20
2017-11-22T18:34:03.244Z,5.20
2017-11-22T18:36:30.718Z,5.20
2017-11-22T18:38:58.189Z,5.10
2017-11-22T18:41:26.487Z,5.10
2017-11-22T18:43:54.783Z,5.10
2017-11-22T18:46:22.318Z,5.10
2017-11-22T18:48:49.848Z,5.10
2017-11-22T18:51:17.371Z,5.00
2017-11-22T18:53:44.911Z,5.00
2017-11-22T18:56:12.390Z,5.00
2017-11-22T18:58:39.881Z,5.00
2017-11-22T19:01:07.376Z,5.00
2017-11-22T19:03:34.882Z,5.00
2017-11-22T19:06:02.903Z,5.00
2017-11-22T19:08:31.203Z,4.90
2017-11-22T19:10:58.760Z,4.90
2017-11-22T19:13:26.249Z,4.90
2017-11-22T19:15:54.607Z,4.90
2017-11-22T19:18:22.080Z,4.90
2017-11-22T19:20:49.631Z,4.90
2017-11-22T19:23:17.157Z,4.90
2017-11-22T19:25:44.693Z,4.90
2017-11-22T19:28:12.227Z,4.90
2017-11-22T19:30:39.798Z,5.00
2017-11-22T19:33:07.346Z,5.00
2017-11-22T19:35:34.832Z,5.00
2017-11-22T19:38:03.133Z,5.10
2017-11-22T19:40:30.632Z,5.00
2017-11-22T19:42:58.118Z,5.10
2017-11-22T19:45:25.654Z,5.10
2017-11-22T19:47:53.214Z,5.10
2017-11-22T19:50:20.743Z,5.00
2017-11-22T19:52:48.276Z,5.00
2017-11-22T19:55:16.525Z,5.00
2017-11-22T19:57:44.984Z,5.00
2017-11-22T20:00:12.523Z,5.00
2017-11-22T20:02:40.075Z,5.00
2017-11-22T20:05:07.628Z,5.00
2017-11-22T20:07:47.170Z,4.90
2017-11-22T20:10:14.693Z,4.90
2017-11-22T20:12:42.952Z,4.90
2017-11-22T20:15:10.425Z,4.90
2017-11-22T20:17:38.007Z,4.90
2017-11-22T20:20:06.288Z,4.90
2017-11-22T20:22:33.830Z,4.90
2017-11-22T20:25:02.129Z,4.80
2017-11-22T20:27:29.649Z,4.80
2017-11-22T20:29:57.195Z,4.80
2017-11-22T20:32:24.721Z,4.80
2017-11-22T20:34:52.248Z,4.80
2017-11-22T20:37:20.540Z,4.70
2017-11-22T20:39:48.064Z,4.70
2017-11-22T20:42:16.355Z,4.70
2017-11-22T20:44:44.609Z,4.70
2017-11-22T20:47:12.610Z,4.70
2017-11-22T20:49:40.137Z,4.70
2017-11-22T20:52:07.669Z,4.70
2017-11-22T20:54:35.230Z,4.70
2017-11-22T20:57:02.710Z,4.70
2017-11-22T20:59:30.280Z,4.60
2017-11-22T21:01:57.769Z,4.60
2017-11-22T21:04:25.348Z,4.60
2017-11-22T21:06:52.905Z,4.60
2017-11-22T21:09:22.240Z,4.60
2017-11-22T21:11:49.793Z,4.60
2017-11-22T21:14:17.309Z,4.50
2017-11-22T21:16:44.849Z,4.50
2017-11-22T21:19:13.168Z,4.50
2017-11-22T21:21:40.663Z,4.40
2017-11-22T21:24:15.601Z,4.50
2017-11-22T21:26:43.775Z,4.40
2017-11-22T21:29:11.327Z,4.40
2017-11-22T21:31:38.851Z,4.40
2017-11-22T21:34:06.380Z,4.40
2017-11-22T21:36:34.663Z,4.40
2017-11-22T21:39:02.203Z,4.40
2017-11-22T21:41:30.457Z,4.40
2017-11-22T21:43:58.753Z,4.40
2017-11-22T21:46:27.072Z,4.40
2017-11-22T21:48:54.597Z,4.40
2017-11-22T21:51:22.884Z,4.40
2017-11-22T21:53:52.101Z,4.40
2017-11-22T21:56:19.765Z,4.40
2017-11-22T21:58:47.235Z,4.40
2017-11-22T22:01:14.790Z,4.40
2017-11-22T22:03:42.331Z,4.30
2017-11-22T22:06:10.796Z,4.30
2017-11-22T22:08:39.091Z,4.40
2017-11-22T22:11:06.613Z,4.40
2017-11-22T22:13:34.129Z,4.50
2017-11-22T22:16:01.692Z,4.50
2017-11-22T22:18:29.174Z,4.50
2017-11-22T22:20:56.697Z,4.50
2017-11-22T22:23:24.207Z,4.50
2017-11-22T22:25:52.449Z,4.40
2017-11-22T22:28:26.300Z,4.40
2017-11-22T22:30:54.560Z,4.40
2017-11-22T22:33:22.045Z,4.40
2017-11-22T22:35:49.572Z,4.40
2017-11-22T22:38:17.096Z,4.40
2017-11-22T22:40:44.637Z,4.40
2017-11-22T22:43:12.099Z,4.40
2017-11-22T22:45:39.633Z,4.40
2017-11-22T22:48:07.883Z,4.30
2017-11-22T22:50:36.143Z,4.30
2017-11-22T22:53:03.611Z,4.30
2017-11-22T22:55:31.124Z,4.30
2017-11-22T22:57:58.591Z,4.30
2017-11-22T23:00:26.119Z,4.30
2017-11-22T23:02:54.365Z,4.30
2017-11-22T23:05:22.275Z,4.30
2017-11-22T23:07:49.757Z,4.30
2017-11-22T23:10:17.224Z,4.40
2017-11-22T23:12:44.691Z,4.40
2017-11-22T23:15:12.159Z,4.50
2017-11-22T23:17:39.687Z,4.50
2017-11-22T23:20:07.197Z,4.50
2017-11-22T23:22:35.456Z,4.60
2017-11-22T23:25:02.928Z,4.60
2017-11-22T23:27:30.409Z,4.60
2017-11-22T23:29:57.890Z,4.60
2017-11-22T23:32:25.401Z,4.60
2017-11-22T23:34:53.637Z,4.60
2017-11-22T23:37:21.896Z,4.60
2017-11-22T23:39:49.375Z,4.60
2017-11-22T23:42:16.907Z,4.60
2017-11-22T23:44:47.402Z,4.60
2017-11-22T23:47:15.638Z,4.60
2017-11-22T23:49:43.148Z,4.50
2017-11-22T23:52:10.622Z,4.60
2017-11-22T23:54:38.078Z,4.60
2017-11-22T23:57:05.558Z,4.60
2017-11-22T23:59:33.056Z,4.60
